DRI Storm Peak Lab. Weather observations

Data are for 5 minute period ending at time listed.
 Day   Time    Ave.   Ave.  Ave.  Vector  Max.   Total    Baro.    Solar      Aerosol      Ave.  Ultrafine   Snow  
  of    of     Air    Rel.  Wind   Wind   Wind  Precip.   Pres.  Radiation   Aerosol      Ozone   Aerosol    Depth 
Year   Day     Temp.  Hum.  Speed  Dir.   Gust                               Ave.   Max.            Ave.           
2014   (MST)    F      %     mph   deg.    mph    in.      mb.     w/m2         #/cm3      ppbv    #/cm3      in.  
-------------------------------------------------------------------------------------------------------------------
 302   11:05   31.3    37   12.3   245    15.8   999.00    695.8      0.0    -1454       0   999.0        0     0.0
 302   11:10   31.4    39    8.2   254    11.7   999.00    695.7      0.0    -1454       0   999.0        0     0.0
 302   11:15   31.7    40    9.5   259    14.1   999.00    695.6      0.0    -1454       0   999.0        0     0.0
 302   11:20   31.8    39    9.3   259    15.9   999.00    695.5      0.0    -1453       0   999.0        0     0.0
 302   11:25   31.9    40    7.6   268    12.2   999.00    695.6      0.0    -1453       0   999.0        0     0.0
 302   11:30   32.4    41    9.2   260    14.6   999.00    695.5      0.0    -1453       0   999.0        0     0.0
 302   11:35   32.1    42    9.7   245    15.8   999.00    695.5      0.0    -1453       0   999.0        0     0.0
 302   11:40   31.8    43    8.8   232    13.3   999.00    695.5      0.0    -1452       0   999.0        0     0.0
 302   11:45   32.5    44    7.4   253    10.0   999.00    695.4      0.0    -1452       0   999.0        0     0.0
 302   11:50   32.7    44    8.8   258    13.7   999.00    695.4      0.0    -1452       0   999.0        0     0.0
 302   11:55   32.8    45    9.1   245    19.1   999.00    695.3      0.0    -1451       0   999.0        0     0.0
 302   12:00   32.6    46    9.5   241    14.3   999.00    695.2      0.0    -1451       0   999.0        0     0.0
 302   12:05   32.9    46   11.1   236    18.4   999.00    695.1      0.0    -1451       0   999.0        0     0.0
 302   12:10   32.7    48   15.8   236    19.5   999.00    695.1      0.0    -1450       0   999.0        0     0.0
 302   12:15   32.8    49   13.1   236    19.7   999.00    695.1      0.0    -1450       0   999.0        0     0.0
 302   12:20   33.2    50   16.8   243    22.6   999.00    695.0      0.0    -1450       0   999.0        0     0.0
 302   12:25   33.3    50   11.1   240    17.4   999.00    694.9      0.0    -1449       0   999.0        0     0.0
 302   12:30   33.9    46   10.4   251    21.0   999.00    694.8      0.0    -1449       0   999.0        0     0.0
 302   12:35   33.7    47   12.7   235    20.6   999.00    694.8      0.0    -1449       0   999.0        0     0.0
 302   12:40   34.2    47   10.6   253    17.6   999.00    694.7      0.0    -1448       0   999.0        0     0.0
 302   12:45   34.5    46   10.2   253    18.2   999.00    694.8      0.0    -1449       0   999.0        0     0.0
 302   12:50   34.9    46    9.0   266    13.5   999.00    694.7      0.0    -1448       0   999.0        0     0.0
 302   12:55   34.7    44   11.6   265    17.8   999.00    694.6      0.0    -1448       0   999.0        0     0.0
 302   13:00   34.4    45    8.9   266    13.0   999.00    694.7      0.0    -1448       0   999.0        0     0.0
 302   13:05   34.7    45    9.4   262    13.3   999.00    694.7      0.0    -1448       0   999.0        0     0.0
 302   13:10   34.4    45    9.8   255    13.7   999.00    694.7      0.0    -1447       0   999.0        0     0.0
 302   13:15   34.0    46   10.2   266    14.6   999.00    694.6      0.0    -1446       0   999.0        0     0.0
 302   13:20   34.4    45    8.3   274    11.8   999.00    694.6      0.0    -1446       0   999.0        0     0.0
 302   13:25   34.4    45    9.2   264    12.8   999.00    694.6      0.0    -1446       0   999.0        0     0.0
 302   13:30   34.4    44   11.3   265    15.2   999.00    694.6      0.0    -1445       0   999.0        0     0.0
 302   13:35   34.1    46    8.6   267    14.4   999.00    694.6      0.0    -1445       0   999.0        0     0.0
 302   13:40   35.2    44   10.7   268    18.0   999.00    694.6      0.0    -1445       0   999.0        0     0.0
 302   13:45   34.1    45    9.8   251    19.3   999.00    694.5      0.0    -1444       0   999.0        0     0.0
 302   13:50   35.3    44   11.5   259    17.8   999.00    694.5      0.0    -1444       0   999.0        0     0.0
 302   13:55   36.1    44    9.9   277    17.6   999.00    694.5      0.0    -1444       0   999.0        0     0.0
 302   14:00   36.1    43   11.9   272    18.2   999.00    694.5      0.0    -1443       0   999.0        0     0.0
 302   14:05   36.3    43   12.3   273    17.1   999.00    694.3      0.0    -1443       0   999.0        0     0.0
 302   14:10   36.0    43   14.9   266    19.5   999.00    694.3      0.0    -1442       0   999.0        0     0.0
 302   14:15   35.9    44   11.6   268    15.8   999.00    694.4      0.0    -1442       0   999.0        0     0.0
 302   14:20   36.1    44   13.7   270    18.9   999.00    694.3      0.0    -1442       0   999.0        0     0.0
 302   14:25   36.2    44   14.6   278    19.1   999.00    694.3      0.0    -1442       0   999.0        0     0.0
 302   14:30   36.2    44   12.2   270    17.8   999.00    694.3      0.0    -1442       0   999.0        0     0.0
 302   14:35   36.2    44   14.2   277    20.8   999.00    694.4      0.0    -1441       0   999.0        0     0.0
 302   14:40   36.3    44   13.4   272    18.0   999.00    694.4      0.0    -1441       0   999.0        0     0.0
 302   14:45   36.4    45   12.7   277    20.0   999.00    694.4      0.0    -1441       0   999.0        0     0.0
 302   14:50   36.5    45   14.7   284    19.1   999.00    694.3      0.0    -1441       0   999.0        0     0.0
 302   14:55   36.1    45   12.9   295    18.5   999.00    694.4      0.0    -1440       0   999.0        0     0.0
 302   15:00   36.5    44   17.2   280    21.7   999.00    694.4      0.0    -1440       0   999.0        0     0.0
 302   15:05   36.6    43   18.0   270    24.5   999.00    694.5      0.0    -1440       0   999.0        0     0.0
 302   15:10   36.8    44   16.6   288    22.8   999.00    694.4      0.0    -1440       0   999.0        0     0.0
 302   15:15   36.9    44   17.0   279    23.4   999.00    694.4      0.0    -1439       0   999.0        0     0.0
 302   15:20   36.4    46   14.7   285    22.8   999.00    694.5      0.0    -1439       0   999.0        0     0.0
 302   15:25   36.0    46   17.3   286    21.7   999.00    694.5      0.0    -1439       0   999.0        0     0.0
 302   15:30   35.3    47   16.9   280    24.0   999.00    694.6      0.0    -1439       0   999.0        0     0.0
 302   15:35   35.2    45   20.7   266    27.9   999.00    694.5      0.0    -1438       0   999.0        0     0.0
 302   15:40   34.9    46   14.6   276    20.8   999.00    694.5      0.0    -1438       0   999.0        0     0.0
 302   15:45   34.7    46   17.7   279    25.2   999.00    694.4      0.0    -1438       0   999.0        0     0.0
 302   15:50   34.8    44   17.6   268    24.9   999.00    694.4      0.0    -1438       0   999.0        0     0.0
 302   15:55   34.8    45   17.2   284    22.3   999.00    694.4      0.0    -1438       0   999.0        0     0.0
 302   16:00   35.0    43   17.0   280    22.6   999.00    694.4      0.0    -1438       0   999.0        0     0.0
 302   16:05   34.8    44   15.1   274    19.9   999.00    694.5      0.0    -1438       0   999.0        0     0.0
 302   16:10   34.7    44   16.3   278    20.6   999.00    694.4      0.0    -1438       0   999.0        0     0.0
 302   16:15   34.6    44   14.9   279    21.5   999.00    694.4      0.0    -1438       0   999.0        0     0.0
 302   16:20   34.5    44   16.4   281    22.1   999.00    694.4      0.0    -1438       0   999.0        0     0.0
 302   16:25   35.1    42   16.7   271    23.2   999.00    694.4      0.0    -1439       0   999.0        0     0.0
 302   16:30   35.5    42   15.4   272    23.6   999.00    694.4      0.0    -1439       0   999.0        0     0.0
 302   16:35   35.1    42   16.6   268    23.0   999.00    694.4      0.0    -1439       0   999.0        0     0.0
 302   16:40   34.5    42   16.5   274    21.3   999.00    694.4      0.0    -1439       0   999.0        0     0.0
 302   16:45   34.6    42   17.7   267    23.8   999.00    694.5      0.0    -1439       0   999.0        0     0.0
 302   16:50   35.0    42   18.1   266    25.6   999.00    694.6      0.0    -1439       0   999.0        0     0.0
 302   16:55   35.3    42   15.0   270    20.0   999.00    694.7      0.0    -1440       0   999.0        0     0.0
 302   17:00   35.1    43   14.3   268    18.7   999.00    694.6      0.0    -1440       0   999.0        0     0.0
 302   17:05   34.7    44   16.2   266    22.3   999.00    694.6      0.0    -1440       0   999.0        0     0.0
 302   17:10   34.5    44   18.0   273    25.2   999.00    694.6      0.0    -1440       0   999.0        0     0.0
 302   17:15   34.1    45   17.3   286    23.0   999.00    694.5      0.0    -1440       0   999.0        0     0.0
 302   17:20   33.8    46   17.8   294    23.8   999.00    694.5      0.0    -1440       0   999.0        0     0.0
 302   17:25   33.7    45   15.7   285    21.7   999.00    694.7      0.0    -1440       0   999.0        0     0.0
 302   17:30   33.6    45   15.1   289    19.3   999.00    694.7      0.0    -1440       0   999.0        0     0.0
 302   17:35   33.4    45   14.0   284    19.7   999.00    694.8      0.0    -1441       0   999.0        0     0.0
 302   17:40   33.4    44   14.6   279    21.7   999.00    694.9      0.0    -1441       0   999.0        0     0.0
 302   17:45   33.3    45   14.7   278    19.7   999.00    695.0      0.0    -1442       0   999.0        0     0.0
 302   17:50   33.3    45   14.2   274    19.7   999.00    695.0      0.0    -1442       0   999.0        0     0.0
 302   17:55   33.6    43   15.2   265    19.7   999.00    694.9      0.0    -1442       0   999.0        0     0.0
 302   18:00   33.4    44   14.9   267    18.9   999.00    694.9      0.0    -1442       0   999.0        0     0.0
 302   18:05   33.4    44   14.7   269    19.7   999.00    695.0      0.0    -1442       0   999.0        0     0.0
 302   18:10   33.4    45   14.7   270    20.0   999.00    695.0      0.0    -1442       0   999.0        0     0.0
 302   18:15   33.4    45   14.9   264    21.5   999.00    695.0      0.0    -1443       0   999.0        0     0.0
 302   18:20   33.4    45   15.4   264    20.4   999.00    695.0      0.0    -1443       0   999.0        0     0.0
 302   18:25   33.3    45   15.1   265    19.1   999.00    695.0      0.0    -1443       0   999.0        0     0.0
 302   18:30   33.5    45   15.6   268    19.1   999.00    695.0      0.0    -1443       0   999.0        0     0.0
 302   18:35   33.4    45   16.6   271    21.0   999.00    695.0      0.0    -1443       0   999.0        0     0.0
 302   18:40   33.3    45   15.7   269    24.9   999.00    695.1      0.0    -1444       0   999.0        0     0.0
 302   18:45   33.0    46   13.8   274    18.7   999.00    695.1      0.0    -1444       0   999.0        0     0.0
 302   18:50   32.7    47   14.3   278    19.5   999.00    695.2      0.0    -1444       0   999.0        0     0.0
 302   18:55   32.8    47   14.0   284    18.9   999.00    695.2      0.0    -1444       0   999.0        0     0.0
 302   19:00   32.2    48   12.5   286    15.4   999.00    695.3      0.0    -1444       0   999.0        0     0.0
 302   19:05   32.1    48   12.0   284    15.4   999.00    695.2      0.0    -1444       0   999.0        0     0.0
 302   19:10   31.9    48   13.4   283    18.2   999.00    695.1      0.0    -1444       0   999.0        0     0.0
 302   19:15   32.0    48   14.6   285    18.9   999.00    695.1      0.0    -1444       0   999.0        0     0.0
 302   19:20   32.1    48   15.2   287    18.4   999.00    695.1      0.0    -1445       0   999.0        0     0.0
 302   19:25   32.1    48   14.4   288    17.2   999.00    695.2      0.0    -1445       0   999.0        0     0.0
 302   19:30   31.9    49   14.8   288    18.2   999.00    695.2      0.0    -1445       0   999.0        0     0.0
 302   19:35   31.4    50   13.6   291    17.6   999.00    695.2      0.0    -1445       0   999.0        0     0.0
 302   19:40   31.1    50   12.8   298    15.8   999.00    695.2      0.0    -1445       0   999.0        0     0.0
 302   19:45   30.8    50   12.4   292    15.2   999.00    695.2      0.0    -1445       0   999.0        0     0.0
 302   19:50   30.8    50   13.5   293    16.3   999.00    695.1      0.0    -1445       0   999.0        0     0.0
 302   19:55   30.6    50   13.3   302    15.8   999.00    695.2      0.0    -1446       0   999.0        0     0.0
 302   20:00   30.3    50   13.5   302    17.2   999.00    695.3      0.0    -1446       0   999.0        0     0.0
 302   20:05   30.5    50   14.2   305    16.9   999.00    695.4      0.0    -1446       0   999.0        0     0.0
 302   20:10   30.4    50   14.5   308    16.9   999.00    695.4      0.0    -1446       0   999.0        0     0.0
 302   20:15   30.6    48   14.9   305    18.7   999.00    695.3      0.0    -1447       0   999.0        0     0.0
 302   20:20   30.7    47   16.3   305    18.2   999.00    695.4      0.0    -1447       0   999.0        0     0.0
 302   20:25   30.7    47   16.0   299    18.4   999.00    695.3      0.0    -1447       0   999.0        0     0.0
 302   20:30   30.6    47   16.8   305    20.6   999.00    695.3      0.0    -1447       0   999.0        0     0.0
 302   20:35   30.5    48   16.0   307    18.4   999.00    695.4      0.0    -1447       0   999.0        0     0.0
 302   20:40   30.5    47   16.0   306    19.3   999.00    695.4      0.0    -1448       0   999.0        0     0.0
 302   20:45   30.4    48   15.4   308    19.5   999.00    695.4      0.0    -1448       0   999.0        0     0.0
 302   20:50   30.2    48   15.2   312    18.5   999.00    695.5      0.0    -1448       0   999.0        0     0.0
 302   20:55   30.2    48   15.9   313    20.0   999.00    695.4      0.0    -1449       0   999.0        0     0.0
 302   21:00   30.3    48   16.1   316    19.5   999.00    695.4      0.0    -1449       0   999.0        0     0.0
 302   21:05   30.3    48   16.7   312    20.4   999.00    695.4      0.0    -1449       0   999.0        0     0.0
 302   21:10   30.7    47   18.0   310    21.7   999.00    695.2      0.0    -1449       0   999.0        0     0.0
 302   21:15   31.0    46   17.9   310    20.6   999.00    695.3      0.0    -1450       0   999.0        0     0.0
 302   21:20   30.6    47   17.3   307    20.0   999.00    695.4      0.0    -1450       0   999.0        0     0.0
 302   21:25   30.9    46   17.8   308    20.6   999.00    695.3      0.0    -1450       0   999.0        0     0.0
 302   21:30   30.9    46   16.9   305    19.9   999.00    695.3      0.0    -1450       0   999.0        0     0.0
 302   21:35   30.6    47   17.2   307    20.2   999.00    695.3      0.0    -1450       0   999.0        0     0.0
 302   21:40   30.8    47   17.6   308    20.2   999.00    695.2      0.0    -1450       0   999.0        0     0.0
 302   21:45   30.7    47   17.4   310    20.6   999.00    695.3      0.0    -1451       0   999.0        0     0.0
 302   21:50   30.5    48   16.5   307    19.3   999.00    695.4      0.0    -1451       0   999.0        0     0.0
 302   21:55   30.7    47   16.9   306    19.7   999.00    695.4      0.0    -1451       0   999.0        0     0.0
 302   22:00   30.5    48   16.3   307    17.8   999.00    695.4      0.0    -1451       0   999.0        0     0.0
 302   22:05   30.4    48   16.7   302    19.5   999.00    695.3      0.0    -1451       0   999.0        0     0.0
 302   22:10   30.4    48   16.7   298    19.1   999.00    695.2      0.0    -1451       0   999.0        0     0.0
 302   22:15   30.4    47   16.1   297    18.9   999.00    695.2      0.0    -1451       0   999.0        0     0.0
 302   22:20   30.3    48   16.0   294    18.0   999.00    695.2      0.0    -1451       0   999.0        0     0.0
 302   22:25   30.1    48   15.7   296    18.2   999.00    695.2      0.0    -1452       0   999.0        0     0.0
 302   22:30   30.1    48   15.9   295    18.5   999.00    695.3      0.0    -1452       0   999.0        0     0.0
 302   22:35   29.7    50   15.8   289    18.5   999.00    695.3      0.0    -1452       0   999.0        0     0.0
 302   22:40   29.8    51   16.4   292    18.7   999.00    695.3      0.0    -1452       0   999.0        0     0.0
 302   22:45   30.1    52   16.4   287    20.2   999.00    695.3      0.0    -1453       0   999.0        0     0.0
 302   22:50   29.9    52   15.8   287    18.9   999.00    695.4      0.0    -1453       0   999.0        0     0.0
 302   22:55   29.6    50   14.2   292    16.7   999.00    695.5      0.0    -1453       0   999.0        0     0.0
 302   23:00   29.4    50   14.5   288    17.1   999.00    695.6      0.0    -1454       0   999.0        0     0.0
 302   23:05   29.2    51   13.6   292    16.5   999.00    695.6      0.0    -1454       0   999.0        0     0.0
 302   23:10   29.1    51   12.2   285    14.3   999.00    695.5      0.0    -1454       0   999.0        0     0.0
 302   23:15   28.9    52   12.9   285    17.2   999.00    695.6      0.0    -1454       0   999.0        0     0.0
 302   23:20   28.5    52   10.6   284    12.4   999.00    695.7      0.0    -1454       0   999.0        0     0.0
 302   23:25   28.4    52   10.8   283    12.8   999.00    695.7      0.0    -1455       0   999.0        0     0.0
 302   23:30   28.3    52   10.9   281    13.5   999.00    695.7      0.0    -1455       0   999.0        0     0.0
 302   23:35   28.5    52   11.5   280    13.3   999.00    695.8      0.0    -1455       0   999.0        0     0.0
 302   23:40   28.5    52   11.3   284    13.3   999.00    695.8      0.0    -1455       0   999.0        0     0.0
 302   23:45   28.6    52   11.2   284    15.0   999.00    695.8      0.0    -1455       0   999.0        0     0.0
 302   23:50   28.7    53   12.8   278    15.0   999.00    695.7      0.0    -1455       0   999.0        0     0.0
 302   23:55   29.2    56   11.5   284    14.3   999.00    695.7      0.0    -1455       0   999.0        0     0.0
 303    0:00   29.2    56   11.3   282    15.0   999.00    695.8      0.0    -1455       0   999.0        0     0.0
 303    0:05   29.4    56   12.0   280    14.8   999.00    695.8      0.0    -1455       0   999.0        0     0.0
 303    0:10   29.4    56   11.1   279    13.3   999.00    695.9      0.0    -1455       0   999.0        0     0.0
 303    0:15   29.3    58   11.5   276    15.4   999.00    695.9      0.0    -1456       0   999.0        0     0.0
 303    0:20   29.3    57   11.2   274    14.3   999.00    695.9      0.0    -1455       0   999.0        0     0.0
 303    0:25   29.2    57   11.8   267    14.4   999.00    695.8      0.0    -1455       0   999.0        0     0.0
 303    0:30   29.2    57   12.0   266    15.4   999.00    695.9      0.0    -1455       0   999.0        0     0.0
 303    0:35   29.3    57   11.6   264    14.3   999.00    695.8      0.0    -1455       0   999.0        0     0.0
 303    0:40   29.3    57   12.4   268    15.9   999.00    695.8      0.0    -1455       0   999.0        0     0.0
 303    0:45   29.3    58   13.1   270    16.3   999.00    695.9      0.0    -1455       0   999.0        0     0.0
 303    0:50   29.3    58   12.7   281    15.9   999.00    695.9      0.0    -1456       0   999.0        0     0.0
 303    0:55   29.2    57   13.0   293    15.6   999.00    696.0      0.0    -1456       0   999.0        0     0.0
 303    1:00   29.1    56   13.0   292    16.7   999.00    696.0      0.0    -1456       0   999.0        0     0.0
 303    1:05   29.1    56   11.6   280    15.0   999.00    695.9      0.0    -1456       0   999.0        0     0.0
 303    1:10   29.0    57   12.5   277    14.6   999.00    695.9      0.0    -1456       0   999.0        0     0.0
 303    1:15   29.0    58   12.1   280    15.6   999.00    695.8      0.0    -1455       0   999.0        0     0.0
 303    1:20   29.1    59   13.0   281    15.4   999.00    695.9      0.0    -1456       0   999.0        0     0.0
 303    1:25   29.1    60   12.8   281    16.3   999.00    695.9      0.0    -1456       0   999.0        0     0.0
 303    1:30   29.1    62   13.5   282    17.1   999.00    695.9      0.0    -1456       0   999.0        0     0.0
 303    1:35   29.1    62   13.7   287    18.0   999.00    695.9      0.0    -1456       0   999.0        0     0.0
 303    1:40   29.0    62   13.2   290    15.9   999.00    696.0      0.0    -1456       0   999.0        0     0.0
 303    1:45   28.8    62   13.1   288    16.3   999.00    696.1      0.0    -1457       0   999.0        0     0.0
 303    1:50   28.8    62   14.1   290    18.2   999.00    696.1      0.0    -1457       0   999.0        0     0.0
 303    1:55   28.9    63   14.0   292    16.9   999.00    696.0      0.0    -1457       0   999.0        0     0.0
 303    2:00   28.9    62   13.7   292    16.3   999.00    696.0      0.0    -1457       0   999.0        0     0.0
 303    2:05   28.9    64   14.3   288    17.4   999.00    695.9      0.0    -1457       0   999.0        0     0.0
 303    2:10   29.1    68   15.2   289    18.9   999.00    695.9      0.0    -1457       0   999.0        0     0.0
 303    2:15   29.3    68   15.2   285    21.3   999.00    696.0      0.0    -1457       0   999.0        0     0.0
 303    2:20   28.9    66   14.2   284    16.9   999.00    696.0      0.0    -1457       0   999.0        0     0.0
 303    2:25   29.0    68   13.7   291    17.8   999.00    696.0      0.0    -1457       0   999.0        0     0.0
 303    2:30   28.9    68   14.3   284    19.1   999.00    696.1      0.0    -1458       0   999.0        0     0.0
 303    2:35   28.7    69   14.4   286    17.2   999.00    696.0      0.0    -1458       0   999.0        0     0.0
 303    2:40   28.8    70   13.6   287    17.6   999.00    696.0      0.0    -1458       0   999.0        0     0.0
 303    2:45   28.7    70   13.8   283    17.1   999.00    696.0      0.0    -1458       0   999.0        0     0.0
 303    2:50   28.6    70   13.6   279    16.1   999.00    696.0      0.0    -1458       0   999.0        0     0.0
 303    2:55   28.6    71   14.2   283    16.9   999.00    696.0      0.0    -1458       0   999.0        0     0.0
 303    3:00   28.8    72   13.9   285    16.3   999.00    696.1      0.0    -1458       0   999.0        0     0.0
 303    3:05   28.9    73   13.9   294    17.8   999.00    696.1      0.0    -1458       0   999.0        0     0.0
 303    3:10   29.0    72   14.9   290    19.5   999.00    696.1      0.0    -1458       0   999.0        0     0.0
 303    3:15   28.6    72   13.8   294    16.5   999.00    696.1      0.0    -1458       0   999.0        0     0.0
 303    3:20   28.5    72   14.0   295    15.9   999.00    696.1      0.0    -1458       0   999.0        0     0.0
 303    3:25   28.5    74   14.6   292    17.2   999.00    696.1      0.0    -1459       0   999.0        0     0.0
 303    3:30   28.7    75   15.7   294    18.5   999.00    696.1      0.0    -1459       0   999.0        0     0.0
 303    3:35   28.8    75   15.9   294    18.5   999.00    696.1      0.0    -1459       0   999.0        0     0.0
 303    3:40   29.0    76   15.7   296    20.4   999.00    696.1      0.0    -1459       0   999.0        0     0.0
 303    3:45   28.9    76   15.7   293    20.8   999.00    696.1      0.0    -1459       0   999.0        0     0.0
 303    3:50   29.0    76   16.1   295    20.0   999.00    696.1      0.0    -1459       0   999.0        0     0.0
 303    3:55   29.0    77   16.8   294    18.5   999.00    696.1      0.0    -1459       0   999.0        0     0.0
 303    4:00   29.1    77   15.7   294    19.3   999.00    696.1      0.0    -1459       0   999.0        0     0.0
 303    4:05   29.0    78   15.6   287    18.7   999.00    696.1      0.0    -1460       0   999.0        0     0.0
 303    4:10   29.0    79   15.9   288    18.5   999.00    696.2      0.0    -1460       0   999.0        0     0.0
 303    4:15   29.0    79   15.2   291    18.2   999.00    696.2      0.0    -1460       0   999.0        0     0.0
 303    4:20   28.8    78   14.9   287    18.2   999.00    696.3      0.0    -1460       0   999.0        0     0.0
 303    4:25   28.6    78   14.7   288    17.6   999.00    696.3      0.0    -1460       0   999.0        0     0.0
 303    4:30   28.4    78   14.9   289    17.6   999.00    696.3      0.0    -1461       0   999.0        0     0.0
 303    4:35   28.4    80   15.0   288    18.2   999.00    696.4      0.0    -1461       0   999.0        0     0.0
 303    4:40   28.6    80   14.5   290    17.6   999.00    696.3      0.0    -1461       0   999.0        0     0.0
 303    4:45   28.4    80   14.4   288    17.4   999.00    696.3      0.0    -1461       0   999.0        0     0.0
 303    4:50   28.5    81   14.8   287    17.4   999.00    696.4      0.0    -1461       0   999.0        0     0.0
 303    4:55   28.5    81   14.8   289    17.6   999.00    696.3      0.0    -1461       0   999.0        0     0.0
 303    5:00   28.6    82   15.2   286    18.5   999.00    696.4      0.0    -1461       0   999.0        0     0.0
 303    5:05   28.5    82   13.9   288    17.2   999.00    696.3      0.0    -1461       0   999.0        0     0.0
 303    5:10   28.4    83   13.7   279    16.9   999.00    696.4      0.0    -1461       0   999.0        0     0.0
 303    5:15   28.3    83   13.6   278    18.2   999.00    696.4      0.0    -1461       0   999.0        0     0.0
 303    5:20   28.2    84   13.3   274    16.7   999.00    696.4      0.0    -1461       0   999.0        0     0.0
 303    5:25   28.1    84   12.9   276    16.9   999.00    696.4      0.0    -1461       0   999.0        0     0.0
 303    5:30   27.7    84   12.9   277    14.8   999.00    696.4      0.0    -1462       0   999.0        0     0.0
 303    5:35   27.6    84   12.9   280    15.2   999.00    696.4      0.0    -1462       0   999.0        0     0.0
 303    5:40   27.6    84   12.1   276    16.7   999.00    696.5      0.0    -1462       0   999.0        0     0.0
 303    5:45   27.5    84   12.3   274    15.0   999.00    696.4      0.0    -1461       0   999.0        0     0.0
 303    5:50   27.5    84   11.3   280    15.9   999.00    696.5      0.0    -1462       0   999.0        0     0.0
 303    5:55   27.5    84   12.0   280    14.8   999.00    696.5      0.0    -1462       0   999.0        0     0.0
 303    6:00   27.7    84   11.8   272    15.0   999.00    696.5      0.0    -1462       0   999.0        0     0.0
 303    6:05   27.8    83   11.9   270    15.8   999.00    696.6      0.0    -1462       0   999.0        0     0.0
 303    6:10   28.0    82   11.1   276    13.9   999.00    696.6      0.0    -1462       0   999.0        0     0.0
 303    6:15   27.7    83   11.5   277    13.7   999.00    696.6      0.0    -1462       0   999.0        0     0.0
 303    6:20   27.8    82   10.9   272    13.3   999.00    696.6      0.0    -1462       0   999.0        0     0.0
 303    6:25   28.0    81   11.4   274    14.4   999.00    696.7      0.0    -1462       0   999.0        0     0.0
 303    6:30   28.0    82   12.0   266    14.6   999.00    696.7      0.0    -1462       0   999.0        0     0.0
 303    6:35   28.1    82   11.0   269    14.1   999.00    696.7      0.0    -1462       0   999.0        0     0.0
 303    6:40   28.0    83   11.3   272    13.2   999.00    696.8      0.0    -1462       0   999.0        0     0.0
 303    6:45   28.1    83   11.1   267    13.5   999.00    696.8      0.0    -1462       0   999.0        0     0.0
 303    6:50   28.2    82   11.1   266    12.4   999.00    696.9      0.0    -1462       0   999.0        0     0.0
 303    6:55   28.2    82   10.2   262    13.0   999.00    696.9      0.0    -1462       0   999.0        0     0.0
 303    7:00   28.2    82   10.0   257    12.4   999.00    697.0      0.0    -1462       0   999.0        0     0.0
 303    7:05   28.6    83   10.3   256    12.4   999.00    697.0      0.0    -1462       0   999.0        0     0.0
 303    7:10   28.9    82   10.0   260    12.0   999.00    697.1      0.0    -1462       0   999.0        0     0.0
 303    7:15   29.0    82   10.1   263    12.4   999.00    697.2      0.0    -1462       0   999.0        0     0.0
 303    7:20   29.1    81   10.2   264    13.9   999.00    697.2      0.0    -1462       0   999.0        0     0.0
 303    7:25   29.2    81   10.1   263    13.2   999.00    697.3      0.0    -1462       0   999.0        0     0.0
 303    7:30   29.3    81   10.6   262    13.9   999.00    697.4      0.0    -1462       0   999.0        0     0.0
 303    7:35   29.2    81    9.0   262    12.0   999.00    697.5      0.0    -1462       0   999.0        0     0.0
 303    7:40   29.2    81   11.8   260    15.0   999.00    697.5      0.0    -1462       0   999.0        0     0.0
 303    7:45   29.3    80    8.4   264    14.3   999.00    697.6      0.0    -1462       0   999.0        0     0.0
 303    7:50   29.2    80    8.2   266    10.9   999.00    697.6      0.0    -1462       0   999.0        0     0.0
 303    7:55   29.2    80    9.0   266    10.9   999.00    697.6      0.0    -1462       0   999.0        0     0.0
 303    8:00   29.4    79    7.8   265    10.2   999.00    697.7      0.0    -1462       0   999.0        0     0.0
 303    8:05   29.5    80    7.5   264     9.1   999.00    697.7      0.0    -1462       0   999.0        0     0.0
 303    8:10   29.6    79    7.7   263    10.0   999.00    697.8      0.0    -1462       0   999.0        0     0.0
 303    8:15   30.0    76    8.3   265    10.6   999.00    697.8      0.0    -1462       0   999.0        0     0.0
 303    8:20   30.1    76    9.1   279    15.6   999.00    697.8      0.0    -1462       0   999.0        0     0.0
 303    8:25   30.3    74   10.1   283    14.8   999.00    697.8      0.0    -1462       0   999.0        0     0.0
 303    8:30   30.1    74    6.5   291     8.7   999.00    697.9      0.0    -1462       0   999.0        0     0.0
 303    8:35   30.1    75    6.7   281    10.9   999.00    697.9      0.0    -1462       0   999.0        0     0.0
 303    8:40   30.2    74    5.9   275     8.1   999.00    698.0      0.0    -1462       0   999.0        0     0.0
 303    8:45   30.6    72    4.8   274     6.8   999.00    698.1      0.0    -1462       0   999.0        0     0.0
 303    8:50   30.5    72    3.8   275     5.9   999.00    698.0      0.0    -1462       0   999.0        0     0.0
 303    8:55   30.9    67    4.5   275     7.8   999.00    698.0      0.0    -1461       0   999.0        0     0.0
 303    9:00   31.2    64    6.5   278    10.7   999.00    697.9      0.0    -1461       0   999.0        0     0.0
 303    9:05   31.3    62    6.2   282     9.2   999.00    697.9      0.0    -1461       0   999.0        0     0.0
 303    9:10   31.5    60    4.3   281     6.3   999.00    697.9      0.0    -1461       0   999.0        0     0.0
 303    9:15   31.5    61    4.6   281     8.3   999.00    698.0      0.0    -1460       0   999.0        0     0.0
 303    9:20   31.8    60    2.6   280     4.2   999.00    698.0      0.0    -1460       0   999.0        0     0.0
 303    9:25   32.2    59    3.9   281     7.2   999.00    698.1      0.0    -1460       0   999.0        0     0.0
 303    9:30   32.4    58    2.9   280     5.5   999.00    698.0      0.0    -1460       0   999.0        0     0.0
 303    9:35   32.7    57    5.8   279     8.7   999.00    698.0      0.0    -1460       0   999.0        0     0.0
 303    9:40   32.4    59    5.6   276     8.3   999.00    698.1      0.0    -1459       0   999.0        0     0.0
 303    9:45   32.5    56    5.9   272     8.3   999.00    698.1      0.0    -1459       0   999.0        0     0.0
 303    9:50   32.8    58    4.6   270     6.3   999.00    698.1      0.0    -1459       0   999.0        0     0.0
 303    9:55   33.2    55    4.5   269     6.8   999.00    698.0      0.0    -1458       0   999.0        0     0.0
 303   10:00   32.8    56    4.6   267     7.8   999.00    698.0      0.0    -1458       0   999.0        0     0.0
 303   10:05   33.1    54    6.0   265     9.1   999.00    698.0      0.0    -1458       0   999.0        0     0.0
 303   10:10   33.2    55    6.3   264     8.5   999.00    698.0      0.0    -1458       0   999.0        0     0.0
 303   10:15   33.5    53    6.3   260    10.7   999.00    698.0      0.0    -1457       0   999.0        0     0.0
 303   10:20   33.2    56    6.4   256    11.1   999.00    698.0      0.0    -1457       0   999.0        0     0.0
 303   10:25   33.7    53    4.7   257     8.3   999.00    698.0      0.0    -1457       0   999.0        0     0.0
 303   10:30   33.8    54    5.2   262     8.7   999.00    698.0      0.0    -1457       0   999.0        0     0.0
 303   10:35   34.4    50    3.6   263     4.4   999.00    697.9      0.0    -1456       0   999.0        0     0.0
 303   10:40   34.5    53    3.7   262     5.0   999.00    697.9      0.0    -1456       0   999.0        0     0.0
 303   10:45   34.6    53    4.9   260     8.1   999.00    697.9      0.0    -1456       0   999.0        0     0.0
 303   10:50   34.0    56    4.3   257     8.3   999.00    697.9      0.0    -1456       0   999.0        0     0.0
 303   10:55   34.3    56    3.0   256     4.2   999.00    698.0      0.0    -1456       0   999.0        0     0.0
 303   11:00   34.4    57    5.0   255     7.4   999.00    698.0      0.0    -1455       0   999.0        0     0.0

Return to DRI Storm Peak Lab. graphs page.


Western Regional Climate Center,wrcc@dri.edu